Time;durP1;ratioP1;P1;durP2;ratioP2;P2;SDS_P1;SDS_P2;PMS_P1;PMS_P2;Temp;Humidity;BMP_temperature;BMP_pressure;BME280_temperature;BME280_humidity;BME280_pressure;Samples;Min_cycle;Max_cycle;Signal;HPM_P1;HPM_P2
2022/08/25 00:02:08;;;;;;;4.20;0.17;;;;;;;21.24;100.00;100073.06;7388939;19;20014;-64
2022/08/25 00:04:35;;;;;;;0.57;0.35;;;;;;;21.52;100.00;100073.28;7388700;19;20010;-64
2022/08/25 00:07:02;;;;;;;1.08;0.20;;;;;;;21.47;100.00;100074.13;7393734;19;20109;-64
2022/08/25 00:09:31;;;;;;;0.20;0.08;;;;;;;20.19;100.00;100084.03;7390228;19;20345;-64
2022/08/25 00:11:58;;;;;;;0.30;0.20;;;;;;;19.60;100.00;100085.88;7394092;19;20034;-64
2022/08/25 00:14:36;;;;;;;0.20;0.00;;;;;;;19.73;100.00;100081.63;7389730;19;20070;-63
2022/08/25 00:17:04;;;;;;;0.20;0.00;;;;;;;19.48;100.00;100089.38;7394293;19;20104;-63
2022/08/25 00:19:34;;;;;;;1.95;0.30;;;;;;;19.67;100.00;100090.91;7387148;19;20019;-64
2022/08/25 00:22:03;;;;;;;1.00;0.30;;;;;;;19.60;100.00;100083.03;7389581;19;20015;-64
2022/08/25 00:24:30;;;;;;;0.95;0.17;;;;;;;19.61;100.00;100081.75;7390150;19;20010;-64
2022/08/25 00:26:58;;;;;;;0.73;0.10;;;;;;;19.97;100.00;100087.19;7393753;19;20018;-64
2022/08/25 00:29:26;;;;;;;0.73;0.28;;;;;;;19.49;100.00;100090.91;7391815;19;20022;-64
2022/08/25 00:31:54;;;;;;;0.77;0.20;;;;;;;19.41;100.00;100087.91;7397097;19;20015;-63
2022/08/25 00:34:32;;;;;;;0.10;0.10;;;;;;;19.20;100.00;100072.72;7394765;19;20030;-64
2022/08/25 00:37:00;;;;;;;0.25;0.10;;;;;;;19.17;100.00;100068.09;7401430;19;20025;-64
2022/08/25 00:39:30;;;;;;;3.20;0.47;;;;;;;19.19;100.00;100074.00;7396860;19;20044;-62
2022/08/25 00:41:58;;;;;;;0.40;0.10;;;;;;;19.50;100.00;100072.63;7400444;19;20010;-62
2022/08/25 00:44:27;;;;;;;0.98;0.40;;;;;;;19.88;100.00;100076.28;7395007;19;20015;-62
2022/08/25 00:46:56;;;;;;;0.20;0.10;;;;;;;19.51;100.00;100072.09;7401280;19;20010;-62
2022/08/25 00:49:40;;;;;;;0.47;0.30;;;;;;;19.58;100.00;100077.16;7397577;19;20025;-61
2022/08/25 00:52:12;;;;;;;0.68;0.25;;;;;;;20.16;100.00;100066.06;7396817;19;20014;-62
2022/08/25 00:54:46;;;;;;;0.77;0.30;;;;;;;19.61;100.00;100073.28;7393026;19;20021;-62
2022/08/25 00:57:17;;;;;;;3.05;0.43;;;;;;;19.41;100.00;100079.41;7393844;19;20014;-62
2022/08/25 00:59:43;;;;;;;1.13;0.10;;;;;;;18.50;100.00;100093.38;7396065;19;20410;-64
2022/08/25 01:02:14;;;;;;;1.23;0.20;;;;;;;17.79;100.00;100108.63;7395976;19;20456;-63
2022/08/25 01:04:43;;;;;;;0.85;0.20;;;;;;;18.28;100.00;100107.59;7394310;19;20017;-61
2022/08/25 01:07:10;;;;;;;2.72;0.52;;;;;;;18.34;100.00;100113.22;7395724;19;20007;-61
2022/08/25 01:09:37;;;;;;;0.90;0.25;;;;;;;18.72;100.00;100103.69;7395629;19;20038;-61
2022/08/25 01:12:04;;;;;;;0.50;0.28;;;;;;;19.04;100.00;100107.50;7399297;19;20066;-60
2022/08/25 01:14:32;;;;;;;0.30;0.10;;;;;;;19.01;100.00;100111.41;7394135;19;20015;-60
2022/08/25 01:16:59;;;;;;;4.22;1.05;;;;;;;18.96;100.00;100112.22;7400251;19;20035;-61
2022/08/25 01:19:28;;;;;;;0.22;0.10;;;;;;;19.10;100.00;100116.69;7395832;19;20482;-61
2022/08/25 01:21:54;;;;;;;0.13;0.10;;;;;;;19.05;100.00;100117.53;7395231;19;20352;-62
2022/08/25 01:24:35;;;;;;;1.23;0.32;;;;;;;19.19;100.00;100121.25;7395446;19;20333;-62
2022/08/25 01:27:01;;;;;;;2.05;0.20;;;;;;;19.40;100.00;100111.03;7397520;19;20034;-60
2022/08/25 01:29:28;;;;;;;0.60;0.28;;;;;;;19.09;100.00;100118.00;7395059;19;20456;-62
2022/08/25 01:32:04;;;;;;;1.83;0.28;;;;;;;19.28;100.00;100107.53;7394336;19;20066;-62
2022/08/25 01:34:36;;;;;;;0.73;0.20;;;;;;;18.87;100.00;100112.53;7393700;19;20053;-62
2022/08/25 01:37:04;;;;;;;2.47;0.45;;;;;;;19.36;100.00;100105.66;7397823;19;20014;-62
2022/08/25 01:39:32;;;;;;;0.47;0.20;;;;;;;19.26;100.00;100124.22;7394558;19;20018;-62
2022/08/25 01:42:10;;;;;;;0.68;0.10;;;;;;;19.39;100.00;100115.91;7396191;19;20021;-64
2022/08/25 01:44:39;;;;;;;0.20;0.10;;;;;;;19.77;100.00;100107.50;7392439;19;20459;-63
2022/08/25 01:47:06;;;;;;;0.60;0.32;;;;;;;20.03;100.00;100099.19;7394074;19;20484;-63
2022/08/25 01:49:34;;;;;;;0.20;0.20;;;;;;;20.65;100.00;100097.75;7395313;19;20086;-64
2022/08/25 01:52:09;;;;;;;0.45;0.40;;;;;;;21.56;100.00;100099.22;7393012;19;20071;-64
2022/08/25 01:54:36;;;;;;;3.20;0.20;;;;;;;21.85;100.00;100106.63;7393446;19;20038;-63
2022/08/25 01:57:04;;;;;;;1.65;0.22;;;;;;;21.98;100.00;100097.34;7397428;19;20010;-61
2022/08/25 01:59:31;;;;;;;1.85;0.28;;;;;;;22.38;100.00;100098.72;7391961;19;20021;-61
2022/08/25 02:01:57;;;;;;;0.10;0.00;;;;;;;22.29;100.00;100097.13;7392896;19;20019;-62
2022/08/25 02:04:24;;;;;;;0.40;0.10;;;;;;;22.51;100.00;100107.94;7393478;19;20014;-63
2022/08/25 02:06:50;;;;;;;3.38;0.50;;;;;;;22.44;100.00;100102.94;7396217;19;20011;-63
2022/08/25 02:09:17;;;;;;;1.08;0.20;;;;;;;21.28;100.00;100101.81;7391959;19;20022;-63
2022/08/25 02:11:45;;;;;;;4.85;0.50;;;;;;;20.00;100.00;100092.53;7399869;19;20353;-63
2022/08/25 02:14:14;;;;;;;0.40;0.10;;;;;;;19.38;100.00;100093.84;7397806;19;20011;-63
2022/08/25 02:16:43;;;;;;;0.50;0.22;;;;;;;19.42;100.00;100091.50;7398204;19;20094;-63
2022/08/25 02:19:11;;;;;;;1.83;0.17;;;;;;;19.55;100.00;100095.19;7393702;19;20024;-63
2022/08/25 02:21:38;;;;;;;0.60;0.10;;;;;;;20.52;100.00;100080.72;7391119;19;20463;-63
2022/08/25 02:24:05;;;;;;;0.55;0.17;;;;;;;20.36;100.00;100090.25;7391426;19;20018;-62
2022/08/25 02:26:32;;;;;;;0.38;0.10;;;;;;;21.39;100.00;100085.38;7395225;19;20070;-62
2022/08/25 02:28:59;;;;;;;0.13;0.00;;;;;;;19.35;100.00;100092.84;7393463;19;20038;-62
2022/08/25 02:31:26;;;;;;;0.63;0.20;;;;;;;20.35;100.00;100091.56;7392521;19;20025;-62
2022/08/25 02:33:52;;;;;;;2.25;0.28;;;;;;;20.15;100.00;100090.00;7392095;19;20010;-65
2022/08/25 02:36:20;;;;;;;1.30;0.63;;;;;;;20.95;100.00;100075.63;7396094;19;20006;-65
2022/08/25 02:38:47;;;;;;;1.00;0.30;;;;;;;21.02;100.00;100074.22;7393626;19;20018;-65
2022/08/25 02:41:18;;;;;;;0.10;0.00;;;;;;;21.24;100.00;100078.72;7395144;19;20481;-67
2022/08/25 02:43:46;;;;;;;1.17;0.10;;;;;;;21.17;100.00;100073.69;7393108;19;20017;-65
2022/08/25 02:46:14;;;;;;;4.43;0.25;;;;;;;21.22;100.00;100081.34;7393159;19;20399;-65
2022/08/25 02:48:40;;;;;;;1.50;0.20;;;;;;;21.38;100.00;100088.75;7391917;19;20352;-65
2022/08/25 02:51:08;;;;;;;0.65;0.00;;;;;;;21.23;100.00;100080.03;7391083;19;20425;-65
2022/08/25 02:53:38;;;;;;;1.20;0.30;;;;;;;21.44;100.00;100078.06;7390818;19;20011;-65
2022/08/25 02:56:06;;;;;;;0.30;0.28;;;;;;;21.43;100.00;100070.88;7395522;19;20355;-64
2022/08/25 02:58:32;;;;;;;1.42;0.20;;;;;;;21.54;100.00;100070.66;7392943;19;20337;-63
2022/08/25 03:00:59;;;;;;;0.10;0.00;;;;;;;21.53;100.00;100071.94;7392724;19;20030;-63
2022/08/25 03:03:25;;;;;;;1.60;0.30;;;;;;;21.55;100.00;100066.53;7390711;19;20063;-63
2022/08/25 03:05:52;;;;;;;0.50;0.28;;;;;;;21.56;100.00;100065.19;7394893;19;20014;-62
2022/08/25 03:08:18;;;;;;;0.20;0.10;;;;;;;21.68;100.00;100066.47;7390491;19;20392;-61
2022/08/25 03:10:44;;;;;;;1.20;0.30;;;;;;;21.77;100.00;100072.47;7393036;19;20010;-61
2022/08/25 03:13:10;;;;;;;0.10;0.10;;;;;;;21.55;100.00;100072.94;7391771;19;20010;-61
2022/08/25 03:15:37;;;;;;;0.28;0.20;;;;;;;21.46;100.00;100078.28;7392016;19;20359;-62
2022/08/25 03:18:04;;;;;;;0.10;0.10;;;;;;;21.69;100.00;100070.84;7391820;19;20011;-61
2022/08/25 03:20:34;;;;;;;0.38;0.10;;;;;;;21.87;100.00;100072.81;7391368;19;20025;-61
2022/08/25 03:23:02;;;;;;;0.45;0.10;;;;;;;21.97;100.00;100065.38;7390385;19;20011;-61
2022/08/25 03:28:14;;;;;;;0.55;0.10;;;;;;;22.09;100.00;100071.56;7390211;19;20357;-60
2022/08/25 03:30:44;;;;;;;0.20;0.00;;;;;;;22.14;100.00;100073.50;7389079;19;20018;-60
2022/08/25 03:33:11;;;;;;;0.77;0.40;;;;;;;22.24;100.00;100072.47;7388399;19;20066;-61
2022/08/25 03:35:38;;;;;;;0.75;0.10;;;;;;;22.33;100.00;100079.75;7390827;19;20014;-61
2022/08/25 03:38:04;;;;;;;0.35;0.20;;;;;;;22.27;100.00;100065.69;7389197;19;20018;-61
2022/08/25 03:40:31;;;;;;;0.55;0.38;;;;;;;22.36;100.00;100068.06;7391929;19;20018;-60
2022/08/25 03:43:00;;;;;;;0.10;0.10;;;;;;;22.47;100.00;100062.13;7389114;19;20015;-60
2022/08/25 03:45:26;;;;;;;0.82;0.10;;;;;;;22.75;100.00;100063.53;7390275;19;20032;-60
2022/08/25 03:47:53;;;;;;;0.77;0.17;;;;;;;21.48;100.00;100067.16;7390755;19;20416;-60
2022/08/25 03:50:20;;;;;;;1.10;0.20;;;;;;;22.22;100.00;100075.09;7391025;19;20114;-61
2022/08/25 03:52:54;;;;;;;0.30;0.13;;;;;;;22.12;100.00;100059.84;7390432;19;20406;-62
2022/08/25 03:55:22;;;;;;;2.10;0.25;;;;;;;22.15;100.00;100066.50;7391637;19;20011;-61
2022/08/25 03:57:49;;;;;;;1.50;0.20;;;;;;;22.12;100.00;100059.84;7389250;19;20031;-61
2022/08/25 04:00:15;;;;;;;1.83;0.40;;;;;;;22.15;100.00;100049.50;7389226;19;20084;-61
2022/08/25 04:02:41;;;;;;;1.02;0.10;;;;;;;22.10;100.00;100039.78;7390473;19;20011;-61
2022/08/25 04:05:08;;;;;;;0.50;0.15;;;;;;;22.20;100.00;100032.31;7390889;19;20018;-61
2022/08/25 04:07:34;;;;;;;0.98;0.40;;;;;;;22.25;100.00;100037.13;7390251;19;20010;-61
2022/08/25 04:10:00;;;;;;;0.77;0.28;;;;;;;22.24;100.00;100021.38;7389948;19;20018;-61
2022/08/25 04:12:27;;;;;;;0.15;0.10;;;;;;;22.23;100.00;100019.88;7394589;19;20011;-61
2022/08/25 04:14:53;;;;;;;0.65;0.20;;;;;;;22.13;100.00;100007.50;7389991;19;20014;-61
2022/08/25 04:17:19;;;;;;;0.63;0.08;;;;;;;22.05;100.00;100015.16;7390337;19;20845;-61
2022/08/25 04:19:46;;;;;;;0.10;0.10;;;;;;;22.08;100.00;100013.28;7388125;19;20011;-61
2022/08/25 04:22:12;;;;;;;1.33;0.40;;;;;;;22.09;100.00;100018.41;7389901;19;20105;-63
2022/08/25 04:24:38;;;;;;;0.55;0.00;;;;;;;21.95;100.00;100022.63;7389945;19;20011;-63
2022/08/25 04:27:04;;;;;;;0.25;0.25;;;;;;;21.92;100.00;100023.69;7393310;19;20006;-62
2022/08/25 04:29:31;;;;;;;0.32;0.13;;;;;;;21.78;100.00;100013.69;7389287;19;20010;-61
2022/08/25 04:31:57;;;;;;;0.10;0.10;;;;;;;21.78;100.00;100010.84;7389399;19;20026;-61
2022/08/25 04:34:25;;;;;;;0.22;0.10;;;;;;;21.87;100.00;100016.09;7388588;19;20014;-61
2022/08/25 04:36:51;;;;;;;0.98;0.20;;;;;;;21.86;100.00;100020.25;7393958;19;20007;-61
2022/08/25 04:39:20;;;;;;;2.88;0.20;;;;;;;21.72;100.00;100015.91;7388737;19;20015;-61
2022/08/25 04:41:47;;;;;;;0.10;0.00;;;;;;;21.60;100.00;100015.38;7390906;19;20018;-61
2022/08/25 04:44:13;;;;;;;2.40;0.35;;;;;;;21.49;100.00;100018.44;7389414;19;20018;-61
2022/08/25 04:46:39;;;;;;;0.55;0.35;;;;;;;21.75;100.00;100021.22;7391732;19;20038;-59
2022/08/25 04:49:05;;;;;;;1.27;0.35;;;;;;;21.68;100.00;100021.13;7389120;19;20006;-59
2022/08/25 04:51:35;;;;;;;0.80;0.03;;;;;;;21.56;100.00;100019.84;7388855;19;20026;-60
2022/08/25 04:54:04;;;;;;;0.63;0.30;;;;;;;21.64;100.00;100017.84;7388151;19;20039;-60
2022/08/25 04:56:35;;;;;;;0.75;0.35;;;;;;;21.66;100.00;100024.50;7388139;19;20011;-60
2022/08/25 04:59:05;;;;;;;0.38;0.10;;;;;;;21.64;100.00;100034.88;7386732;19;20014;-60
2022/08/25 05:01:33;;;;;;;0.13;0.08;;;;;;;21.60;100.00;100032.38;7388182;19;20017;-60
2022/08/25 05:04:02;;;;;;;0.63;0.20;;;;;;;21.86;100.00;100031.56;7387954;19;20021;-59
2022/08/25 05:06:29;;;;;;;0.98;0.10;;;;;;;21.99;100.00;100040.06;7392038;19;20079;-59
2022/08/25 05:08:57;;;;;;;0.38;0.20;;;;;;;21.88;100.00;100041.06;7389063;19;20006;-59
2022/08/25 05:11:24;;;;;;;1.23;0.00;;;;;;;21.81;100.00;100023.91;7392132;19;20015;-59
2022/08/25 05:13:53;;;;;;;0.10;0.00;;;;;;;21.85;100.00;100018.72;7388111;19;20468;-60
2022/08/25 05:16:21;;;;;;;0.20;0.10;;;;;;;21.80;100.00;100016.75;7398311;19;20022;-59
2022/08/25 05:18:48;;;;;;;0.52;0.10;;;;;;;21.85;100.00;100035.75;7400377;19;20348;-61
2022/08/25 05:21:20;;;;;;;0.65;0.03;;;;;;;21.82;100.00;100040.44;7398539;19;20048;-61
2022/08/25 05:23:47;;;;;;;0.00;0.00;;;;;;;21.98;100.00;100035.69;7396217;19;20035;-61
2022/08/25 05:26:19;;;;;;;0.88;0.20;;;;;;;22.15;100.00;100029.63;7398689;19;20028;-59
2022/08/25 05:28:48;;;;;;;0.50;0.10;;;;;;;22.12;100.00;100028.66;7394555;19;20359;-60
2022/08/25 05:31:18;;;;;;;2.72;0.10;;;;;;;21.58;100.00;100039.91;7392886;19;20034;-59
2022/08/25 05:33:45;;;;;;;1.02;0.43;;;;;;;21.96;100.00;100034.72;7391459;19;20014;-59
2022/08/25 05:36:13;;;;;;;0.20;0.10;;;;;;;20.83;100.00;100034.66;7398554;19;20015;-59
2022/08/25 05:38:40;;;;;;;2.97;0.63;;;;;;;21.31;100.00;100039.16;7395133;19;20015;-59
2022/08/25 05:41:10;;;;;;;0.52;0.03;;;;;;;21.46;100.00;100052.78;7397431;19;20006;-61
2022/08/25 05:43:38;;;;;;;0.65;0.28;;;;;;;21.71;100.00;100069.00;7394570;19;20018;-61
2022/08/25 05:46:06;;;;;;;1.23;0.22;;;;;;;21.94;100.00;100069.28;7395297;19;20014;-61
2022/08/25 05:48:33;;;;;;;4.22;0.47;;;;;;;22.08;100.00;100067.94;7394649;19;20011;-59
2022/08/25 05:51:01;;;;;;;0.20;0.20;;;;;;;22.10;100.00;100068.16;7394690;19;20015;-59
2022/08/25 05:53:29;;;;;;;3.40;0.32;;;;;;;22.15;100.00;100075.03;7392820;19;20399;-61
2022/08/25 05:55:57;;;;;;;1.58;0.22;;;;;;;22.06;100.00;100069.81;7396746;19;20010;-61
2022/08/25 05:58:27;;;;;;;0.63;0.10;;;;;;;21.93;100.00;100070.63;7392391;19;20035;-61
2022/08/25 06:00:54;;;;;;;1.35;0.30;;;;;;;21.93;100.00;100064.94;7392167;19;20014;-61
2022/08/25 06:03:20;;;;;;;0.85;0.32;;;;;;;22.12;100.00;100062.69;7394223;19;20014;-61
2022/08/25 06:05:47;;;;;;;1.65;0.85;;;;;;;22.05;100.00;100071.88;7395317;19;20010;-61
2022/08/25 06:08:14;;;;;;;0.80;0.20;;;;;;;20.29;100.00;100071.06;7393750;19;20089;-61
2022/08/25 06:10:42;;;;;;;0.95;0.38;;;;;;;20.04;100.00;100067.56;7394398;19;20018;-61
2022/08/25 06:13:08;;;;;;;0.80;0.28;;;;;;;19.85;100.00;100077.34;7391468;19;20105;-61
2022/08/25 06:15:34;;;;;;;0.22;0.10;;;;;;;19.84;100.00;100070.91;7392953;19;20044;-61
2022/08/25 06:18:02;;;;;;;0.90;0.43;;;;;;;19.82;100.00;100067.84;7392183;19;20014;-61
2022/08/25 06:20:29;;;;;;;2.78;0.75;;;;;;;19.86;100.00;100054.19;7393091;19;20348;-61
2022/08/25 06:22:57;;;;;;;2.53;0.73;;;;;;;19.97;100.00;100050.44;7393681;19;20011;-61
2022/08/25 06:25:25;;;;;;;4.28;0.63;;;;;;;19.96;100.00;100046.84;7393151;19;20017;-61
2022/08/25 06:27:53;;;;;;;0.52;0.40;;;;;;;20.20;100.00;100052.44;7388969;19;20024;-61
2022/08/25 06:30:21;;;;;;;1.17;0.43;;;;;;;20.19;100.00;100050.09;7389971;19;20011;-61
2022/08/25 06:32:48;;;;;;;1.75;0.38;;;;;;;20.02;100.00;100055.25;7392540;19;20078;-60
2022/08/25 06:35:17;;;;;;;3.25;0.20;;;;;;;19.97;100.00;100050.44;7390899;19;20013;-60
2022/08/25 06:37:45;;;;;;;2.10;0.30;;;;;;;20.02;100.00;100052.41;7393167;19;20022;-60
2022/08/25 06:40:13;;;;;;;1.55;0.40;;;;;;;19.92;100.00;100051.28;7392316;19;20039;-61
2022/08/25 06:42:39;;;;;;;1.85;0.98;;;;;;;19.98;100.00;100058.38;7392691;19;20015;-61
2022/08/25 06:45:07;;;;;;;1.88;0.85;;;;;;;20.08;100.00;100053.09;7391108;19;20010;-61
2022/08/25 06:47:33;;;;;;;3.78;0.45;;;;;;;20.03;100.00;100056.78;7392063;19;20070;-61
2022/08/25 06:50:02;;;;;;;3.05;1.10;;;;;;;20.12;100.00;100068.47;7392317;19;20018;-60
2022/08/25 06:52:29;;;;;;;4.50;0.73;;;;;;;20.32;100.00;100070.75;7392138;19;20343;-61
2022/08/25 06:54:56;;;;;;;6.88;0.38;;;;;;;20.34;100.00;100073.03;7392818;19;20010;-60
2022/08/25 06:57:22;;;;;;;1.92;0.77;;;;;;;21.94;100.00;100074.97;7392013;19;20010;-60
2022/08/25 06:59:49;;;;;;;1.42;0.75;;;;;;;22.38;100.00;100076.78;7395376;19;20006;-60
2022/08/25 07:02:15;;;;;;;2.80;0.75;;;;;;;22.55;100.00;100085.66;7394559;19;20092;-60
2022/08/25 07:04:41;;;;;;;1.75;0.40;;;;;;;22.70;100.00;100079.38;7393584;19;20024;-58
2022/08/25 07:07:08;;;;;;;4.00;0.95;;;;;;;22.84;100.00;100082.91;7394905;19;20363;-57
2022/08/25 07:09:34;;;;;;;2.05;0.80;;;;;;;22.77;100.00;100083.59;7391224;19;20010;-58
2022/08/25 07:12:02;;;;;;;4.80;1.05;;;;;;;22.88;100.00;100080.47;7395332;19;20018;-58
2022/08/25 07:14:28;;;;;;;2.03;0.43;;;;;;;22.75;100.00;100086.22;7390954;19;20010;-58
2022/08/25 07:16:55;;;;;;;2.38;0.90;;;;;;;22.96;100.00;100084.13;7396241;19;20045;-58
2022/08/25 07:19:21;;;;;;;3.78;0.82;;;;;;;23.03;100.00;100092.72;7389883;19;20559;-58
2022/08/25 07:21:50;;;;;;;4.00;1.08;;;;;;;22.91;100.00;100085.06;7391054;19;20018;-57
2022/08/25 07:24:17;;;;;;;3.63;0.85;;;;;;;22.97;100.00;100085.66;7390344;19;20015;-58
2022/08/25 07:26:45;;;;;;;4.72;0.93;;;;;;;22.81;100.00;100084.00;7394837;19;20006;-58
2022/08/25 07:29:18;;;;;;;1.40;0.32;;;;;;;22.42;100.00;100087.78;7391906;19;20010;-58
2022/08/25 07:31:46;;;;;;;1.85;0.85;;;;;;;22.70;100.00;100090.75;7389788;19;20031;-58
2022/08/25 07:36:58;;;;;;;3.65;0.90;;;;;;;22.88;100.00;100089.00;7395263;19;20014;-57
2022/08/25 07:39:26;;;;;;;1.92;0.73;;;;;;;22.97;100.00;100097.81;7389485;19;20015;-57
2022/08/25 07:41:52;;;;;;;3.45;0.85;;;;;;;22.93;100.00;100102.31;7393875;19;20014;-57
2022/08/25 07:44:20;;;;;;;4.97;1.10;;;;;;;22.73;100.00;100108.75;7390933;19;20415;-60
2022/08/25 07:46:47;;;;;;;3.42;1.02;;;;;;;22.58;100.00;100104.44;7394569;19;20018;-60
2022/08/25 07:49:14;;;;;;;1.27;0.40;;;;;;;22.49;100.00;100104.13;7390618;19;20014;-60
2022/08/25 07:51:40;;;;;;;2.10;0.80;;;;;;;20.59;100.00;100111.25;7391445;19;20002;-60
2022/08/25 07:54:06;;;;;;;1.20;0.65;;;;;;;18.62;100.00;100133.53;7387857;19;20035;-58
2022/08/25 07:56:33;;;;;;;3.03;0.88;;;;;;;19.47;100.00;100133.00;7393953;19;20417;-58
2022/08/25 07:59:00;;;;;;;2.72;0.85;;;;;;;17.96;100.00;100138.28;7389142;19;20015;-57
2022/08/25 08:01:26;;;;;;;1.85;0.88;;;;;;;17.20;100.00;100154.88;7389412;19;20025;-58
2022/08/25 08:03:52;;;;;;;1.17;0.60;;;;;;;17.39;100.00;100163.53;7389099;19;20010;-58
2022/08/25 08:06:22;;;;;;;3.17;0.75;;;;;;;17.11;100.00;100168.44;7393169;19;20011;-57
2022/08/25 08:08:50;;;;;;;6.85;0.93;;;;;;;17.34;100.00;100172.75;7390061;19;20015;-57
2022/08/25 08:11:21;;;;;;;3.90;0.88;;;;;;;17.26;100.00;100160.50;7392332;19;20070;-60
2022/08/25 08:13:49;;;;;;;6.47;1.42;;;;;;;17.48;100.00;100160.44;7387997;19;20042;-58
2022/08/25 08:16:17;;;;;;;3.45;0.50;;;;;;;17.23;100.00;100169.97;7392789;19;20014;-58
2022/08/25 08:18:45;;;;;;;0.85;0.32;;;;;;;16.97;100.00;100175.09;7391250;19;20085;-58
2022/08/25 08:21:22;;;;;;;2.92;0.75;;;;;;;17.79;100.00;100177.03;7390363;19;20464;-58
2022/08/25 08:23:50;;;;;;;3.20;0.55;;;;;;;20.80;100.00;100136.88;7392103;19;20011;-58
2022/08/25 08:26:16;;;;;;;3.88;0.82;;;;;;;21.47;100.00;100131.59;7393598;19;20464;-58
2022/08/25 08:28:43;;;;;;;2.72;0.52;;;;;;;21.43;100.00;100136.03;7388677;19;20070;-58
2022/08/25 08:31:09;;;;;;;1.80;0.82;;;;;;;21.58;100.00;100141.94;7389323;19;20039;-58
2022/08/25 08:33:36;;;;;;;2.00;0.82;;;;;;;21.73;100.00;100144.97;7390846;19;20036;-58
2022/08/25 08:36:09;;;;;;;9.75;1.08;;;;;;;22.06;100.00;100135.06;7391813;19;20318;-58
2022/08/25 08:38:38;;;;;;;2.53;0.85;;;;;;;22.05;100.00;100134.28;7390352;19;20007;-58
2022/08/25 08:44:34;;;;;;;8.35;1.38;;;;;;;22.09;100.00;100146.06;7389246;19;20015;-61
2022/08/25 08:47:21;;;;;;;1.98;0.75;;;;;;;21.92;100.00;100142.81;7391825;19;20428;-61
2022/08/25 08:49:53;;;;;;;3.45;0.65;;;;;;;22.08;100.00;100143.78;7390054;19;20011;-60
2022/08/25 08:52:27;;;;;;;4.05;0.80;;;;;;;22.12;100.00;100142.13;7396392;19;20517;-61
2022/08/25 08:55:00;;;;;;;2.22;0.47;;;;;;;22.10;100.00;100139.09;7395364;19;20419;-60
2022/08/25 08:57:27;;;;;;;4.97;0.52;;;;;;;22.25;100.00;100135.66;7396964;19;20018;-60
2022/08/25 08:59:59;;;;;;;2.63;0.63;;;;;;;22.23;100.00;100138.28;7396321;19;20403;-60
2022/08/25 09:02:41;;;;;;;2.25;1.38;;;;;;;21.98;100.00;100140.66;7396449;19;20355;-60
2022/08/25 09:05:13;;;;;;;1.70;0.35;;;;;;;21.89;100.00;100138.25;7397793;19;20096;-60
2022/08/25 09:07:47;;;;;;;1.38;0.55;;;;;;;21.93;100.00;100133.00;7396846;19;20464;-61
2022/08/25 09:10:16;;;;;;;1.70;0.90;;;;;;;21.75;100.00;100145.97;7396272;19;20019;-60
2022/08/25 09:12:53;;;;;;;1.45;0.65;;;;;;;21.90;100.00;100139.75;7393775;19;20014;-59
2022/08/25 09:16:53;;;;;;;2.10;0.43;;;;;;;21.78;100.00;100136.38;7393406;19;20054;-62
2022/08/25 09:18:23;;;;;;;0.43;0.30;;;;;;;21.95;100.00;100136.06;7396976;19;20047;-60
2022/08/25 09:21:08;;;;;;;4.65;0.90;;;;;;;22.33;100.00;100131.59;7393667;19;20042;-60
2022/08/25 09:23:55;;;;;;;4.28;0.38;;;;;;;22.42;100.00;100139.66;7393841;19;20029;-60
2022/08/25 09:26:21;;;;;;;0.75;0.20;;;;;;;22.63;100.00;100124.75;7398735;19;20026;-59
2022/08/25 09:28:53;;;;;;;2.10;0.57;;;;;;;22.72;100.00;100110.81;7395864;19;20010;-60
2022/08/25 09:31:22;;;;;;;0.75;0.17;;;;;;;22.95;100.00;100105.34;7393518;19;20014;-60
2022/08/25 09:33:54;;;;;;;0.85;0.30;;;;;;;22.93;100.00;100111.59;7392740;19;20026;-59
2022/08/25 09:36:20;;;;;;;5.10;0.50;;;;;;;22.95;100.00;100111.03;7398105;19;20014;-60
2022/08/25 09:38:46;;;;;;;2.08;0.77;;;;;;;23.06;100.00;100100.16;7393790;19;20034;-60
2022/08/25 09:41:16;;;;;;;1.73;0.55;;;;;;;23.12;100.00;100103.59;7396767;19;20015;-60
2022/08/25 09:43:51;;;;;;;1.13;0.40;;;;;;;23.15;100.00;100093.19;7394256;19;20337;-59
2022/08/25 09:46:28;;;;;;;2.85;0.73;;;;;;;23.05;100.00;100095.78;7397651;19;20019;-59
2022/08/25 09:48:58;;;;;;;2.53;0.77;;;;;;;23.02;100.00;100084.78;7394007;19;20010;-59
2022/08/25 09:51:30;;;;;;;3.53;1.10;;;;;;;22.73;100.00;100083.97;7393165;19;20489;-60
2022/08/25 09:54:04;;;;;;;3.33;0.30;;;;;;;22.78;100.00;100079.47;7393926;19;20575;-62
2022/08/25 09:56:33;;;;;;;1.35;0.60;;;;;;;22.73;100.00;100080.34;7397011;19;20015;-61
2022/08/25 09:59:19;;;;;;;4.10;1.05;;;;;;;22.82;100.00;100085.53;7394023;19;20011;-61
2022/08/25 10:01:54;;;;;;;3.03;0.73;;;;;;;22.59;100.00;100091.78;7394117;19;20031;-59
2022/08/25 10:04:33;;;;;;;3.30;0.75;;;;;;;22.45;100.00;100098.03;7394034;19;20010;-59
2022/08/25 10:07:04;;;;;;;1.20;0.40;;;;;;;22.54;100.00;100101.16;7394599;19;20015;-60
2022/08/25 10:09:33;;;;;;;;;;;;;;;22.87;100.00;100101.69;7394259;19;20337;-59
2022/08/25 10:12:15;;;;;;;1.00;0.28;;;;;;;22.56;100.00;100097.78;7395292;19;19911;-59
2022/08/25 10:14:42;;;;;;;1.48;0.75;;;;;;;22.46;100.00;100088.97;7393796;19;20333;-59
2022/08/25 10:17:23;;;;;;;2.15;0.52;;;;;;;22.46;100.00;100094.66;7398561;19;20010;-59
2022/08/25 10:20:16;;;;;;;0.30;0.20;;;;;;;22.70;100.00;100084.31;7394180;19;20018;-59
2022/08/25 10:22:47;;;;;;;1.48;0.35;;;;;;;22.82;100.00;100085.53;7393780;19;20019;-59
2022/08/25 10:25:19;;;;;;;0.73;0.10;;;;;;;22.76;100.00;100091.34;7395029;19;20519;-58
2022/08/25 10:28:04;;;;;;;0.50;0.17;;;;;;;22.58;100.00;100090.25;7393214;19;20015;-59
2022/08/25 10:30:55;;;;;;;0.20;0.17;;;;;;;22.57;100.00;100082.25;7390951;19;20007;-59
2022/08/25 10:33:33;;;;;;;0.55;0.10;;;;;;;22.30;100.00;100087.31;7393403;19;20078;-59
2022/08/25 10:36:21;;;;;;;2.03;0.30;;;;;;;22.07;100.00;100086.28;7392773;19;20014;-60
2022/08/25 10:38:57;;;;;;;1.23;0.30;;;;;;;22.11;100.00;100092.38;7392573;19;20011;-59
2022/08/25 10:41:32;;;;;;;1.35;0.20;;;;;;;22.08;100.00;100096.31;7395564;19;20018;-61
2022/08/25 10:44:04;;;;;;;0.40;0.17;;;;;;;22.08;100.00;100093.47;7392441;19;20111;-61
2022/08/25 10:46:51;;;;;;;0.70;0.32;;;;;;;22.04;100.00;100103.63;7396336;19;20019;-63
2022/08/25 10:49:20;;;;;;;1.55;0.52;;;;;;;;;;7392988;19;20014;-63
2022/08/25 10:51:57;;;;;;;1.80;0.13;;;;;;;22.14;100.00;100101.84;7389213;19;20015;-62
2022/08/25 10:54:41;;;;;;;0.20;0.10;;;;;;;22.12;100.00;100093.91;7390654;19;20450;-62
2022/08/25 10:57:27;;;;;;;0.57;0.40;;;;;;;22.15;100.00;100098.50;7397015;19;20015;-62
2022/08/25 11:00:21;;;;;;;1.25;0.20;;;;;;;21.04;100.00;100106.38;7392818;19;20048;-62
2022/08/25 11:03:06;;;;;;;3.25;0.30;;;;;;;20.51;100.00;100106.75;7391452;19;20014;-61
2022/08/25 11:05:47;;;;;;;2.85;0.80;;;;;;;20.33;100.00;100099.81;7394537;19;20022;-62
2022/08/25 11:08:47;;;;;;;1.08;0.50;;;;;;;20.35;100.00;100083.84;7391485;19;20493;-62
2022/08/25 11:11:25;;;;;;;1.83;0.57;;;;;;;20.55;100.00;100071.19;7393554;19;20010;-61
2022/08/25 11:14:06;;;;;;;1.10;0.30;;;;;;;20.71;100.00;100060.84;7389168;19;20048;-62
2022/08/25 11:16:44;;;;;;;;;;;;;;;20.96;100.00;100062.97;7397132;19;20011;-62
2022/08/25 11:19:32;;;;;;;0.68;0.28;;;;;;;21.22;100.00;100070.00;7392576;19;19922;-62
2022/08/25 11:22:20;;;;;;;2.75;0.70;;;;;;;21.92;100.00;100063.41;7391265;19;20019;-63
2022/08/25 11:24:49;;;;;;;1.15;0.52;;;;;;;22.44;100.00;100068.91;7392193;19;20033;-63
2022/08/25 11:27:37;;;;;;;0.20;0.20;;;;;;;22.63;100.00;100062.28;7390955;19;20025;-62
2022/08/25 11:30:08;;;;;;;10.02;0.47;;;;;;;22.65;100.00;100076.69;7391577;19;20053;-62
2022/08/25 11:32:36;;;;;;;3.58;0.60;;;;;;;22.49;100.00;100085.03;7389783;19;20019;-62
2022/08/25 11:35:06;;;;;;;2.90;0.57;;;;;;;22.36;100.00;100081.47;7391327;19;20003;-62
2022/08/25 11:37:33;;;;;;;2.20;0.30;;;;;;;22.29;100.00;100079.31;7392476;19;20483;-62
2022/08/25 11:40:08;;;;;;;0.50;0.20;;;;;;;22.39;100.00;100072.63;7391373;19;20238;-62
2022/08/25 11:42:56;;;;;;;1.17;0.30;;;;;;;22.54;100.00;100075.59;7389341;19;20027;-62